Terminal Aerodrome Forecast
Issued by NWS Springfield, MO

Home | Current Version | Previous Version | Text Only | Print | Product List | Glossary On
Versions: 1 2 3 4 5 6 7 8 9 10 11 12 13 14 15 16
627
FTUS43 KSGF 022320
TAFSGF
TAF
KSGF 022320Z 0300/0324 33008KT P6SM OVC040
     FM030300 33004KT P6SM FEW040
     FM030900 VRB03KT P6SM SCT025
      TEMPO 0309/0313 3SM BR OVC025
     FM031600 33007KT P6SM SCT070=

USA.gov is the U.S. government's official web portal to all federal, state and local government web resources and services.